Camp Pendleton MCAS (Munn Field) Airport Oceanside US
ICAO: KNFG
IATA: NFG
Category: Medium
Scheduled Services: No

Elevation: 78 ft
TransAlt. 18000 ft.

Airport Communications:
SOCAL APP/DEP:127.3
APP/DEP:128.45
ATIS:26.76
CLNC DEL:126.2
GND:128.775
MCB RANGE CON:123.2
BASE OPS:26.5
PMSV METRO:34.24
TWR:128.775

KNFG Zoom In..

Runways:

(A) RW 03 length 6005 ft width 200 ft
---- / hdg 31

(B) RW 21 length 6005 ft width 200 ft
---- / hdg 211

Location; KNFG
Day. 07 / Time. 14.55 Zulu
* Altimeter: 29.94
* Temperature: 19° c. 66.2°f.
* Wind from: 050° Speed 03 kn.
Dewpoint: 13° c.
Visibility: 10 Statute Miles.
Clouds: Overcast 1400 ft.

KNFG 071455Z AUTO 05003KT 10SM OVC014 19/13 A2994 RMK AO2 SLP139 T01890128 53014 $

Going to: --> -->


Wind From 050°
Speed 03 kn.

 
 
jpsmedia worldairports.se 2020   terms of use